Tyaskin, Maryland
Current Conditions -  °F | °C
As of 12:53 AM on Friday 28 Nov 2014 (Local Time) from KCGE Reporting Station
Broken Clouds Broken Clouds  
Wind Chill: 34°   Ceiling: 4600
Heat Index: 41°   Visibility: 10mi
Dew Point: 32°   Wind: 13mph
Humidity: 70%   Direction: 310°NW
Pressure: 30.14"   Gusts: 18mph
Location:  38.32°N, 75.87°W
Report Text: KCGE 280553Z AUTO 31011G16KT 290V350 10SM SCT021 SCT036 BKN046 05/00 A3014 RMK AO1
Loading
Personal Weather Stations






























Interactive Weather Map New forecast layout! Learn more

10-Day Weather Forecast

Advertisements
Track Severe Weather on mobile